• Join FlightAware (Why Join?)
  • Login
  • US Flag 
03:05AM EST


 

Airport Tracker/Info


-or-


 

Live Flight TrackerFlight Track Log ✈ DAL6119 ✈ 01-Jul-2013 ✈ KSDF - KLGA

Flight Track Log - Related Links

Times and Time Zones

All times are in EDT time to prevent confusion due to time zone crossing. See the DAL6119 flight status page for this flight to view local times or setup timezone preferences in your user account.

Time Position Orientation Groundspeed Altitude Reporting Facility
EDT Latitude Longitude Course Direction KTS MPH feet Rate Location/Type
08:20PM 38.2500 -85.7500 96° East 233 268 3,300  Level Louisville TRACON
08:20PM 38.2594 -85.6803 80° East 237 273 4,900 2,100 Climbing Indianapolis Center
08:21PM 38.2178 -85.6061 126° Southeast 258 297 7,400 2,280 Climbing Indianapolis Center
08:22PM 38.0583 -85.2374 103° East  Level FlightAware Approximate
08:23PM 38.0333 -85.0989 90° East  Level FlightAware Approximate
08:23PM 38.1908 -85.5161 111° Southeast 270 311 9,600  Level Indianapolis Center
08:24PM 38.0177 -84.9584 99° East  Level FlightAware Approximate
08:24PM 38.1572 -85.4183 114° Southeast 300 345 11,000  Level Indianapolis Center
08:25PM 38.0061 -84.8233 96° East  Level FlightAware Approximate
08:25PM 38.1108 -85.2833 114° Southeast 347 399 12,300  Level Indianapolis Center
08:26PM 38.0689 -85.1703 115° Southeast 365 420 13,300 1,020 Climbing Indianapolis Center
08:27PM 38.0383 -85.0408 107° East 381 438 14,400 1,020 Climbing Indianapolis Center
08:28PM 38.0200 -84.9014 99° East 396 456 15,500 1,140 Climbing Indianapolis Center
08:29PM 38.0031 -84.7658 99° East 391 450 16,800 1,260 Climbing Indianapolis Center
08:30PM 37.9869 -84.6300 99° East 390 449 18,100 1,320 Climbing Indianapolis Center
08:31PM 37.9667 -84.4719 99° East 389 448 19,600 1,260 Climbing Indianapolis Center
08:32PM 37.9600 -84.3281 93° East 403 464 20,700 1,020 Climbing Indianapolis Center
08:33PM 37.9536 -84.1831 93° East 413 475 21,800 1,260 Climbing Indianapolis Center
08:34PM 37.9467 -84.0350 93° East 419 482 23,300 1,560 Climbing Indianapolis Center
08:35PM 37.9406 -83.8931 93° East 409 471 25,100 1,500 Climbing Indianapolis Center
08:36PM 37.9347 -83.7536 93° East 400 460 26,400 1,140 Climbing Indianapolis Center
08:37PM 37.9275 -83.6131 94° East 400 460 27,500 1,020 Climbing Indianapolis Center
08:38PM 37.9206 -83.4706 93° East 405 466 28,600 1,080 Climbing Indianapolis Center
08:39PM 37.9119 -83.3031 94° East 410 472 29,800 1,260 Climbing Indianapolis Center
08:40PM 37.9042 -83.1592 94° East 409 471 31,200 1,260 Climbing Indianapolis Center
08:41PM 37.8972 -83.0139 93° East 410 472 32,500 1,260 Climbing Indianapolis Center
08:42PM 37.8758 -82.8789 101° East 391 450 33,800 1,140 Climbing Indianapolis Center
08:43PM 37.8556 -82.7439 101° East 389 448 34,900 540 Climbing Indianapolis Center
08:44PM 37.8336 -82.6039 101° East 403 464 35,000  Climbing Indianapolis Center
08:45PM 37.8067 -82.4553 103° East 430 495 35,000  Level Indianapolis Center
08:46PM 37.7772 -82.3003 103° East 448 516 35,000  Level Indianapolis Center
08:47PM 37.7503 -82.1511 103° East 436 502 35,000  Level Indianapolis Center
08:48PM 37.7347 -81.9972 97° East 450 518 35,000  Level Indianapolis Center
08:49PM 37.7464 -81.8031 86° East 473 544 35,000  Level Indianapolis Center
08:50PM 37.7550 -81.6308 86° East 488 562 35,000  Level Indianapolis Center
08:51PM 37.7631 -81.4850 86° East 473 544 35,000  Level Indianapolis Center
08:52PM 37.7714 -81.3019 87° East 449 517 35,000  Level Indianapolis Center
08:53PM 37.7786 -81.1497 87° East 447 514 35,000  Level Indianapolis Center
08:54PM 37.7878 -80.9989 86° East 445 512 35,000  Level Indianapolis Center
08:55PM 37.7989 -80.8475 85° East 444 511 35,000  Level Indianapolis Center
08:56PM 37.8097 -80.6656 86° East 444 511 35,000  Level Indianapolis Center
08:57PM 37.8164 -80.5497 86° East 442 509 35,000  Level Washington Center
08:58PM 37.8292 -80.3875 84° East 448 516 35,000  Level Washington Center
08:59PM 37.8383 -80.2619 85° East 455 524 35,000  Level Washington Center
09:00PM 37.8497 -80.0758 86° East 454 522 35,000  Level Washington Center
09:01PM 37.8594 -79.9186 85° East 448 516 35,000  Level Washington Center
09:02PM 37.8669 -79.7692 86° East 459 528 35,000  Level Washington Center
09:03PM 37.8789 -79.6039 85° East 464 534 35,000  Level Washington Center
09:04PM 37.8864 -79.4411 87° East 464 534 35,000  Level Washington Center
09:05PM 37.8956 -79.2758 86° East 464 534 35,000  Level Washington Center
09:06PM 37.9047 -79.1131 86° East 459 528 35,000  Level Washington Center
09:07PM 37.9244 -78.9325 82° East 465 535 35,000  Level Washington Center
09:08PM 37.9458 -78.7650 81° East 465 535 35,000  Level Washington Center
09:09PM 37.9667 -78.5997 81° East 470 541 35,000  Level Washington Center
09:10PM 37.9853 -78.4397 82° East 470 541 35,000  Level Washington Center
09:11PM 38.0008 -78.2981 82° East 460 529 35,000  Level Washington Center
09:12PM 38.0153 -78.1219 84° East 454 522 35,000  Level Washington Center
09:13PM 38.0222 -77.9800 86° East 454 522 35,000  Level Washington Center
09:14PM 38.0358 -77.8194 84° East 454 522 35,000  Level Washington Center
09:15PM 38.0947 -77.6736 63° Northeast 442 509 35,000  Level Washington Center
09:16PM 38.1617 -77.5275 60° Northeast 458 527 35,000  Level Washington Center
09:17PM 38.2308 -77.3786 59° Northeast 473 544 35,000  Level Washington Center
09:18PM 38.2975 -77.2347 59° Northeast 478 550 35,000  Level Washington Center
09:19PM 38.3619 -77.0906 60° Northeast 478 550 35,000  Level Washington Center
09:20PM 38.4283 -76.9408 60° Northeast 478 550 35,000  Level Washington Center
09:21PM 38.4944 -76.7961 60° Northeast 478 550 35,000 -300 Level Washington Center
09:22PM 38.5606 -76.6511 60° Northeast 478 550 34,400 -1,320 Descending Washington Center
09:23PM 38.6264 -76.5086 59° Northeast 473 544 32,400 -1,980 Descending Washington Center
09:24PM 38.6919 -76.3603 60° Northeast 473 544 30,500 -1,800 Descending Washington Center
09:25PM 38.7575 -76.2119 60° Northeast 473 544 28,900 -1,740 Descending Washington Center
09:26PM 38.8375 -76.0500 58° Northeast 478 550 27,100 -1,020 Descending Washington Center
09:27PM 38.9294 -75.9197 48° Northeast 483 556 26,900 -120 Descending Washington Center
09:28PM 39.0256 -75.7972 45° Northeast 483 556 26,900 -360 Level Washington Center
09:29PM 39.1175 -75.6719 47° Northeast 483 556 26,200 -1,320 Descending Washington Center
09:30PM 39.2114 -75.5461 46° Northeast 478 550 24,400 -1,800 Descending Washington Center
09:31PM 39.3133 -75.4467 37° Northeast 473 544 22,700 -1,740 Descending Washington Center
09:32PM 39.4175 -75.3525 35° Northeast 463 533 20,900 -1,740 Descending Washington Center
09:33PM 39.5172 -75.2661 34° Northeast 444 511 19,200 -1,680 Descending Washington Center
09:34PM 39.6128 -75.1739 37° Northeast 439 505 17,600 -1,320 Descending Washington Center
09:35PM 39.6981 -75.0981 34° Northeast 420 483 16,700 -1,380 Descending Washington Center
09:36PM 39.7975 -75.0081 35° Northeast 408 470 14,900 -1,680 Descending Washington Center
09:37PM 39.8806 -74.9372 33° Northeast 398 458 13,300 -1,500 Descending Washington Center
09:38PM 39.9833 -74.8167 42° Northeast 394 453 11,800 -1,200 Descending New York TRACON
09:39PM 40.0500 -74.7000 53° Northeast 389 448 10,800 -900 Descending New York TRACON
09:40PM 40.1333 -74.6000 43° Northeast 380 437 10,000 -420 Descending New York TRACON
09:41PM 40.2000 -74.5000 49° Northeast 385 443 10,000  Level New York TRACON
09:42PM 40.2667 -74.4000 49° Northeast 367 422 10,000 -720 Level New York TRACON
09:43PM 40.3500 -74.3167 37° Northeast 320 368 8,600 -1,380 Descending New York TRACON
09:44PM 40.4000 -74.2500 45° Northeast 311 358 7,300 -900 Descending New York TRACON
09:45PM 40.4667 -74.1667 44° Northeast 301 346 7,000 -840 Descending New York TRACON
09:46PM 40.5167 -74.1000 45° Northeast 303 349 5,700 -1,320 Descending New York TRACON
09:47PM 40.6000 -74.0667 17° North 291 335 4,400 -900 Descending New York TRACON
09:48PM 40.6667 -74.0500 11° North 262 302 4,000 -240 Descending New York TRACON
09:49PM 40.7333 -74.0333 11° North 223 257 4,000  Level New York TRACON
09:50PM 40.7833 -74.0000 27° Northeast 222 255 4,000  Level New York TRACON
09:51PM 40.8333 -73.9500 37° Northeast 221 254 4,000  Level New York TRACON
09:52PM 40.9000 -73.9167 21° North 223 257 4,000  Level New York TRACON
09:53PM 40.9500 -73.8833 27° Northeast 225 259 4,000  Level New York TRACON
09:54PM 40.9833 -73.8333 49° Northeast 224 258 4,000  Level New York TRACON
09:55PM 40.9667 -73.7500 105° East 178 205 4,000  Level New York TRACON